PWSweather.com
Personal Weather Stations
Station Observations
WESTON01
WestonSuperMareGB BS22 8RT

WestonSuperMareGB BS22 8RT

Lat: 51.351508, Lon: -2.933373

Elevation: 15

Station Type: Fine Offset WH1080

http://www.westonweather.co.uk

High Low Average
Temperature 43.1°F6.2°C 26.7°F-2.9°C 35.1°F1.7°C
Dew Point 41.7°F5.4°C 24.9°F-3.9°C 33.5°F0.8°C
Winds 8.6 mph 13.8 kmh Calm Calm 2.0 mph E3.2 kmh E
Wind Gusts 17.3 mph27.8 kmh -- 4.0 mph6.4 kmh
Humidity 96% 90% 94%
Pressure 30.27 in1025.1 mb 30.07 in1018.3 mb -
Precipitation 0.00 in0.0 mm - -
Hour Temp Dew Point Humidity Winds Wind Gusts Pressure Precip Precip Rate Daily Precip Total
12:00 AM 28.3°F-2.1°C 26.0°F-3.3°C 91% Calm Calm -- 30.24 in1024.0 mb 0.00 in0.0 mm 0.00 in0.0 mm 0.00 in0.0 mm
12:05 AM 28.3°F-2.1°C 26.0°F-3.3°C 91% Calm Calm -- 30.24 in1024.0 mb 0.00 in0.0 mm 0.00 in0.0 mm 0.00 in0.0 mm
12:10 AM 28.1°F-2.2°C 25.8°F-3.4°C 91% Calm Calm -- 30.24 in1024.0 mb 0.00 in0.0 mm 0.00 in0.0 mm 0.00 in0.0 mm
12:15 AM 28.1°F-2.2°C 25.6°F-3.6°C 90% Calm Calm -- 30.24 in1024.0 mb 0.00 in0.0 mm 0.00 in0.0 mm 0.00 in0.0 mm
12:20 AM 28.0°F-2.2°C 25.4°F-3.7°C 90% Calm Calm -- 30.24 in1024.0 mb 0.00 in0.0 mm 0.00 in0.0 mm 0.00 in0.0 mm
12:25 AM 28.0°F-2.2°C 25.4°F-3.7°C 90% Calm Calm -- 30.24 in1024.0 mb 0.00 in0.0 mm 0.00 in0.0 mm 0.00 in0.0 mm
12:30 AM 27.8°F-2.3°C 25.2°F-3.8°C 90% Calm Calm -- 30.27 in1025.1 mb 0.00 in0.0 mm 0.00 in0.0 mm 0.00 in0.0 mm
12:35 AM 27.8°F-2.3°C 25.2°F-3.8°C 90% Calm Calm -- 30.27 in1025.1 mb 0.00 in0.0 mm 0.00 in0.0 mm 0.00 in0.0 mm
12:40 AM 27.8°F-2.3°C 25.2°F-3.8°C 90% 0.2 mph SW0.3 kmh SW 1.5 mph2.4 kmh 30.27 in1025.1 mb 0.00 in0.0 mm 0.00 in0.0 mm 0.00 in0.0 mm
12:45 AM 27.8°F-2.3°C 25.5°F-3.6°C 91% 0.2 mph SW0.3 kmh SW 1.5 mph2.4 kmh 30.27 in1025.1 mb 0.00 in0.0 mm 0.00 in0.0 mm 0.00 in0.0 mm
12:50 AM 27.8°F-2.3°C 25.5°F-3.6°C 91% Calm Calm -- 30.27 in1025.1 mb 0.00 in0.0 mm 0.00 in0.0 mm 0.00 in0.0 mm
12:55 AM 27.8°F-2.3°C 25.5°F-3.6°C 91% Calm Calm -- 30.27 in1025.1 mb 0.00 in0.0 mm 0.00 in0.0 mm 0.00 in0.0 mm
01:00 AM 27.8°F-2.3°C 25.5°F-3.6°C 91% Calm Calm -- 30.27 in1025.1 mb 0.00 in0.0 mm 0.00 in0.0 mm 0.00 in0.0 mm
01:05 AM 28.0°F-2.2°C 25.7°F-3.5°C 91% Calm Calm -- 30.27 in1025.1 mb 0.00 in0.0 mm 0.00 in0.0 mm 0.00 in0.0 mm
01:10 AM 28.0°F-2.2°C 25.7°F-3.5°C 91% Calm Calm -- 30.27 in1025.1 mb 0.00 in0.0 mm 0.00 in0.0 mm 0.00 in0.0 mm
01:15 AM 28.0°F-2.2°C 25.7°F-3.5°C 91% Calm Calm -- 30.27 in1025.1 mb 0.00 in0.0 mm 0.00 in0.0 mm 0.00 in0.0 mm
01:20 AM 28.0°F-2.2°C 25.7°F-3.5°C 91% Calm Calm -- 30.27 in1025.1 mb 0.00 in0.0 mm 0.00 in0.0 mm 0.00 in0.0 mm
01:25 AM 28.0°F-2.2°C 25.7°F-3.5°C 91% Calm Calm -- 30.27 in1025.1 mb 0.00 in0.0 mm 0.00 in0.0 mm 0.00 in0.0 mm
01:30 AM 28.0°F-2.2°C 25.7°F-3.5°C 91% Calm Calm -- 30.27 in1025.1 mb 0.00 in0.0 mm 0.00 in0.0 mm 0.00 in0.0 mm
01:35 AM 28.0°F-2.2°C 25.7°F-3.5°C 91% Calm Calm -- 30.27 in1025.1 mb 0.00 in0.0 mm 0.00 in0.0 mm 0.00 in0.0 mm
01:40 AM 28.1°F-2.2°C 25.8°F-3.4°C 91% Calm Calm -- 30.27 in1025.1 mb 0.00 in0.0 mm 0.00 in0.0 mm 0.00 in0.0 mm
01:45 AM 28.1°F-2.2°C 25.8°F-3.4°C 91% Calm Calm -- 30.27 in1025.1 mb 0.00 in0.0 mm 0.00 in0.0 mm 0.00 in0.0 mm
01:50 AM 28.1°F-2.2°C 25.8°F-3.4°C 91% Calm Calm -- 30.27 in1025.1 mb 0.00 in0.0 mm 0.00 in0.0 mm 0.00 in0.0 mm
01:55 AM 28.3°F-2.1°C 26.3°F-3.2°C 92% Calm Calm -- 30.27 in1025.1 mb 0.00 in0.0 mm 0.00 in0.0 mm 0.00 in0.0 mm
02:00 AM 28.3°F-2.1°C 26.3°F-3.2°C 92% Calm Calm -- 30.27 in1025.1 mb 0.00 in0.0 mm 0.00 in0.0 mm 0.00 in0.0 mm
02:05 AM 28.3°F-2.1°C 26.3°F-3.2°C 92% Calm Calm -- 30.27 in1025.1 mb 0.00 in0.0 mm 0.00 in0.0 mm 0.00 in0.0 mm
02:10 AM 28.3°F-2.1°C 26.3°F-3.2°C 92% 0.4 mph E0.6 kmh E 2.1 mph3.4 kmh 30.27 in1025.1 mb 0.00 in0.0 mm 0.00 in0.0 mm 0.00 in0.0 mm
02:15 AM 28.5°F-1.9°C 26.5°F-3.1°C 92% 1.2 mph E1.9 kmh E 3.3 mph5.3 kmh 30.27 in1025.1 mb 0.00 in0.0 mm 0.00 in0.0 mm 0.00 in0.0 mm
02:20 AM 28.5°F-1.9°C 26.5°F-3.1°C 92% 1.0 mph E1.6 kmh E 3.3 mph5.3 kmh 30.27 in1025.1 mb 0.00 in0.0 mm 0.00 in0.0 mm 0.00 in0.0 mm
02:25 AM 28.5°F-1.9°C 26.5°F-3.1°C 92% 0.5 mph E0.8 kmh E 2.1 mph3.4 kmh 30.27 in1025.1 mb 0.00 in0.0 mm 0.00 in0.0 mm 0.00 in0.0 mm
02:30 AM 28.5°F-1.9°C 26.5°F-3.1°C 92% 0.3 mph E0.5 kmh E 1.2 mph1.9 kmh 30.27 in1025.1 mb 0.00 in0.0 mm 0.00 in0.0 mm 0.00 in0.0 mm
02:35 AM 28.5°F-1.9°C 26.5°F-3.1°C 92% 0.4 mph E0.6 kmh E 2.7 mph4.3 kmh 30.27 in1025.1 mb 0.00 in0.0 mm 0.00 in0.0 mm 0.00 in0.0 mm
02:40 AM 28.3°F-2.1°C 26.3°F-3.2°C 92% 0.5 mph E0.8 kmh E 2.7 mph4.3 kmh 30.27 in1025.1 mb 0.00 in0.0 mm 0.00 in0.0 mm 0.00 in0.0 mm
02:45 AM 28.3°F-2.1°C 26.3°F-3.2°C 92% Calm Calm -- 30.27 in1025.1 mb 0.00 in0.0 mm 0.00 in0.0 mm 0.00 in0.0 mm
02:50 AM 28.3°F-2.1°C 26.3°F-3.2°C 92% 0.5 mph E0.8 kmh E 1.8 mph2.9 kmh 30.27 in1025.1 mb 0.00 in0.0 mm 0.00 in0.0 mm 0.00 in0.0 mm
02:55 AM 28.3°F-2.1°C 26.3°F-3.2°C 92% 0.5 mph E0.8 kmh E 1.8 mph2.9 kmh 30.27 in1025.1 mb 0.00 in0.0 mm 0.00 in0.0 mm 0.00 in0.0 mm
03:00 AM 28.3°F-2.1°C 26.3°F-3.2°C 92% 0.5 mph E0.8 kmh E 3.3 mph5.3 kmh 30.27 in1025.1 mb 0.00 in0.0 mm 0.00 in0.0 mm 0.00 in0.0 mm
03:05 AM 28.5°F-1.9°C 26.5°F-3.1°C 92% 1.1 mph E1.8 kmh E 3.3 mph5.3 kmh 30.27 in1025.1 mb 0.00 in0.0 mm 0.00 in0.0 mm 0.00 in0.0 mm
03:10 AM 28.5°F-1.9°C 26.5°F-3.1°C 92% 0.5 mph ENE0.8 kmh ENE 1.5 mph2.4 kmh 30.27 in1025.1 mb 0.00 in0.0 mm 0.00 in0.0 mm 0.00 in0.0 mm
03:15 AM 28.5°F-1.9°C 26.5°F-3.1°C 92% 0.1 mph NE0.2 kmh NE 1.5 mph2.4 kmh 30.27 in1025.1 mb 0.00 in0.0 mm 0.00 in0.0 mm 0.00 in0.0 mm
03:20 AM 28.5°F-1.9°C 26.5°F-3.1°C 92% Calm Calm -- 30.27 in1025.1 mb 0.00 in0.0 mm 0.00 in0.0 mm 0.00 in0.0 mm
03:25 AM 28.5°F-1.9°C 26.5°F-3.1°C 92% Calm Calm -- 30.27 in1025.1 mb 0.00 in0.0 mm 0.00 in0.0 mm 0.00 in0.0 mm
03:30 AM 28.3°F-2.1°C 26.3°F-3.2°C 92% Calm Calm -- 30.27 in1025.1 mb 0.00 in0.0 mm 0.00 in0.0 mm 0.00 in0.0 mm
03:35 AM 28.3°F-2.1°C 26.3°F-3.2°C 92% Calm Calm -- 30.27 in1025.1 mb 0.00 in0.0 mm 0.00 in0.0 mm 0.00 in0.0 mm
03:40 AM 28.3°F-2.1°C 26.3°F-3.2°C 92% Calm Calm -- 30.27 in1025.1 mb 0.00 in0.0 mm 0.00 in0.0 mm 0.00 in0.0 mm
03:45 AM 28.1°F-2.2°C 26.1°F-3.3°C 92% Calm Calm -- 30.27 in1025.1 mb 0.00 in0.0 mm 0.00 in0.0 mm 0.00 in0.0 mm
03:50 AM 28.0°F-2.2°C 25.9°F-3.4°C 92% Calm Calm -- 30.27 in1025.1 mb 0.00 in0.0 mm 0.00 in0.0 mm 0.00 in0.0 mm
03:55 AM 27.8°F-2.3°C 25.7°F-3.5°C 92% Calm Calm -- 30.27 in1025.1 mb 0.00 in0.0 mm 0.00 in0.0 mm 0.00 in0.0 mm
04:00 AM 27.4°F-2.6°C 25.1°F-3.8°C 91% Calm Calm -- 30.27 in1025.1 mb 0.00 in0.0 mm 0.00 in0.0 mm 0.00 in0.0 mm
04:05 AM 27.2°F-2.7°C 25.2°F-3.8°C 92% Calm Calm -- 30.27 in1025.1 mb 0.00 in0.0 mm 0.00 in0.0 mm 0.00 in0.0 mm
04:10 AM 27.0°F-2.8°C 25.0°F-3.9°C 92% Calm Calm -- 30.27 in1025.1 mb 0.00 in0.0 mm 0.00 in0.0 mm 0.00 in0.0 mm
04:15 AM 27.0°F-2.8°C 25.0°F-3.9°C 92% Calm Calm -- 30.27 in1025.1 mb 0.00 in0.0 mm 0.00 in0.0 mm 0.00 in0.0 mm
04:20 AM 27.0°F-2.8°C 25.0°F-3.9°C 92% 0.3 mph NE0.5 kmh NE 1.5 mph2.4 kmh 30.27 in1025.1 mb 0.00 in0.0 mm 0.00 in0.0 mm 0.00 in0.0 mm
04:25 AM 27.2°F-2.7°C 25.2°F-3.8°C 92% 0.8 mph NNE1.3 kmh NNE 1.8 mph2.9 kmh 30.27 in1025.1 mb 0.00 in0.0 mm 0.00 in0.0 mm 0.00 in0.0 mm
04:30 AM 27.2°F-2.7°C 25.2°F-3.8°C 92% 0.9 mph NNE1.4 kmh NNE 1.8 mph2.9 kmh 30.27 in1025.1 mb 0.00 in0.0 mm 0.00 in0.0 mm 0.00 in0.0 mm
04:35 AM 27.4°F-2.6°C 25.4°F-3.7°C 92% 0.9 mph NNE1.4 kmh NNE 1.5 mph2.4 kmh 30.27 in1025.1 mb 0.00 in0.0 mm 0.00 in0.0 mm 0.00 in0.0 mm
04:40 AM 27.6°F-2.4°C 25.6°F-3.6°C 92% 0.6 mph NE1.0 kmh NE 1.5 mph2.4 kmh 30.27 in1025.1 mb 0.00 in0.0 mm 0.00 in0.0 mm 0.00 in0.0 mm
04:45 AM 28.0°F-2.2°C 25.9°F-3.4°C 92% 0.2 mph NE0.3 kmh NE 1.2 mph1.9 kmh 30.27 in1025.1 mb 0.00 in0.0 mm 0.00 in0.0 mm 0.00 in0.0 mm
04:50 AM 28.5°F-1.9°C 26.7°F-2.9°C 93% 0.6 mph SE1.0 kmh SE 1.8 mph2.9 kmh 30.27 in1025.1 mb 0.00 in0.0 mm 0.00 in0.0 mm 0.00 in0.0 mm
04:55 AM 29.0°F-1.7°C 27.3°F-2.6°C 93% 1.2 mph S1.9 kmh S 3.9 mph6.3 kmh 30.27 in1025.1 mb 0.00 in0.0 mm 0.00 in0.0 mm 0.00 in0.0 mm
05:00 AM 29.2°F-1.6°C 27.4°F-2.6°C 93% 1.0 mph SSW1.6 kmh SSW 3.9 mph6.3 kmh 30.27 in1025.1 mb 0.00 in0.0 mm 0.00 in0.0 mm 0.00 in0.0 mm
05:05 AM 29.2°F-1.6°C 27.4°F-2.6°C 93% 0.7 mph S1.1 kmh S 1.8 mph2.9 kmh 30.27 in1025.1 mb 0.00 in0.0 mm 0.00 in0.0 mm 0.00 in0.0 mm
05:10 AM 29.2°F-1.6°C 27.4°F-2.6°C 93% 0.5 mph S0.8 kmh S 1.8 mph2.9 kmh 30.27 in1025.1 mb 0.00 in0.0 mm 0.00 in0.0 mm 0.00 in0.0 mm
05:15 AM 29.2°F-1.6°C 27.4°F-2.6°C 93% Calm Calm -- 30.27 in1025.1 mb 0.00 in0.0 mm 0.00 in0.0 mm 0.00 in0.0 mm
05:20 AM 29.4°F-1.4°C 27.6°F-2.4°C 93% Calm Calm -- 30.27 in1025.1 mb 0.00 in0.0 mm 0.00 in0.0 mm 0.00 in0.0 mm
05:25 AM 29.2°F-1.6°C 27.4°F-2.6°C 93% 0.2 mph WSW0.3 kmh WSW 1.2 mph1.9 kmh 30.27 in1025.1 mb 0.00 in0.0 mm 0.00 in0.0 mm 0.00 in0.0 mm
05:30 AM 29.0°F-1.7°C 27.3°F-2.6°C 93% 0.2 mph WSW0.3 kmh WSW 1.2 mph1.9 kmh 30.27 in1025.1 mb 0.00 in0.0 mm 0.00 in0.0 mm 0.00 in0.0 mm
05:35 AM 29.0°F-1.7°C 27.3°F-2.6°C 93% Calm Calm -- 30.27 in1025.1 mb 0.00 in0.0 mm 0.00 in0.0 mm 0.00 in0.0 mm
05:40 AM 29.0°F-1.7°C 27.3°F-2.6°C 93% Calm Calm -- 30.27 in1025.1 mb 0.00 in0.0 mm 0.00 in0.0 mm 0.00 in0.0 mm
05:45 AM 28.9°F-1.7°C 27.1°F-2.7°C 93% Calm Calm -- 30.27 in1025.1 mb 0.00 in0.0 mm 0.00 in0.0 mm 0.00 in0.0 mm
05:50 AM 28.7°F-1.8°C 26.9°F-2.8°C 93% Calm Calm -- 30.27 in1025.1 mb 0.00 in0.0 mm 0.00 in0.0 mm 0.00 in0.0 mm
05:55 AM 28.5°F-1.9°C 26.7°F-2.9°C 93% Calm Calm -- 30.27 in1025.1 mb 0.00 in0.0 mm 0.00 in0.0 mm 0.00 in0.0 mm
06:00 AM 28.3°F-2.1°C 26.3°F-3.2°C 92% Calm Calm -- 30.27 in1025.1 mb 0.00 in0.0 mm 0.00 in0.0 mm 0.00 in0.0 mm
06:05 AM 28.1°F-2.2°C 26.1°F-3.3°C 92% Calm Calm -- 30.27 in1025.1 mb 0.00 in0.0 mm 0.00 in0.0 mm 0.00 in0.0 mm
06:10 AM 28.0°F-2.2°C 25.9°F-3.4°C 92% Calm Calm -- 30.27 in1025.1 mb 0.00 in0.0 mm 0.00 in0.0 mm 0.00 in0.0 mm
06:15 AM 27.8°F-2.3°C 25.7°F-3.5°C 92% Calm Calm -- 30.27 in1025.1 mb 0.00 in0.0 mm 0.00 in0.0 mm 0.00 in0.0 mm
06:20 AM 27.4°F-2.6°C 25.4°F-3.7°C 92% Calm Calm -- 30.27 in1025.1 mb 0.00 in0.0 mm 0.00 in0.0 mm 0.00 in0.0 mm
06:25 AM 27.4°F-2.6°C 25.4°F-3.7°C 92% Calm Calm -- 30.27 in1025.1 mb 0.00 in0.0 mm 0.00 in0.0 mm 0.00 in0.0 mm
06:30 AM 27.4°F-2.6°C 25.4°F-3.7°C 92% Calm Calm -- 30.27 in1025.1 mb 0.00 in0.0 mm 0.00 in0.0 mm 0.00 in0.0 mm
06:35 AM 27.4°F-2.6°C 25.4°F-3.7°C 92% Calm Calm -- 30.27 in1025.1 mb 0.00 in0.0 mm 0.00 in0.0 mm 0.00 in0.0 mm
06:40 AM 27.4°F-2.6°C 25.4°F-3.7°C 92% Calm Calm -- 30.27 in1025.1 mb 0.00 in0.0 mm 0.00 in0.0 mm 0.00 in0.0 mm
06:45 AM 27.4°F-2.6°C 25.4°F-3.7°C 92% Calm Calm -- 30.27 in1025.1 mb 0.00 in0.0 mm 0.00 in0.0 mm 0.00 in0.0 mm
06:50 AM 27.2°F-2.7°C 25.5°F-3.6°C 93% Calm Calm -- 30.27 in1025.1 mb 0.00 in0.0 mm 0.00 in0.0 mm 0.00 in0.0 mm
06:55 AM 27.2°F-2.7°C 25.5°F-3.6°C 93% Calm Calm -- 30.27 in1025.1 mb 0.00 in0.0 mm 0.00 in0.0 mm 0.00 in0.0 mm
07:00 AM 27.0°F-2.8°C 25.3°F-3.7°C 93% Calm Calm -- 30.27 in1025.1 mb 0.00 in0.0 mm 0.00 in0.0 mm 0.00 in0.0 mm
07:05 AM 27.2°F-2.7°C 25.5°F-3.6°C 93% Calm Calm -- 30.27 in1025.1 mb 0.00 in0.0 mm 0.00 in0.0 mm 0.00 in0.0 mm
07:10 AM 27.2°F-2.7°C 25.5°F-3.6°C 93% 0.2 mph WSW0.3 kmh WSW 1.8 mph2.9 kmh 30.27 in1025.1 mb 0.00 in0.0 mm 0.00 in0.0 mm 0.00 in0.0 mm
07:15 AM 27.2°F-2.7°C 25.5°F-3.6°C 93% 0.6 mph W1.0 kmh W 1.8 mph2.9 kmh 30.27 in1025.1 mb 0.00 in0.0 mm 0.00 in0.0 mm 0.00 in0.0 mm
07:20 AM 27.4°F-2.6°C 25.7°F-3.5°C 93% 0.5 mph W0.8 kmh W 1.8 mph2.9 kmh 30.27 in1025.1 mb 0.00 in0.0 mm 0.00 in0.0 mm 0.00 in0.0 mm
07:25 AM 27.2°F-2.7°C 25.5°F-3.6°C 93% 0.1 mph W0.2 kmh W 1.8 mph2.9 kmh 30.27 in1025.1 mb 0.00 in0.0 mm 0.00 in0.0 mm 0.00 in0.0 mm
07:30 AM 27.0°F-2.8°C 25.3°F-3.7°C 93% Calm Calm -- 30.27 in1025.1 mb 0.00 in0.0 mm 0.00 in0.0 mm 0.00 in0.0 mm
07:35 AM 26.9°F-2.8°C 25.1°F-3.8°C 93% Calm Calm -- 30.27 in1025.1 mb 0.00 in0.0 mm 0.00 in0.0 mm 0.00 in0.0 mm
07:40 AM 26.9°F-2.8°C 25.1°F-3.8°C 93% Calm Calm -- 30.27 in1025.1 mb 0.00 in0.0 mm 0.00 in0.0 mm 0.00 in0.0 mm
07:45 AM 26.9°F-2.8°C 25.1°F-3.8°C 93% 0.1 mph W0.2 kmh W 1.2 mph1.9 kmh 30.24 in1024.0 mb 0.00 in0.0 mm 0.00 in0.0 mm 0.00 in0.0 mm
07:50 AM 27.0°F-2.8°C 25.3°F-3.7°C 93% 0.1 mph W0.2 kmh W 1.2 mph1.9 kmh 30.24 in1024.0 mb 0.00 in0.0 mm 0.00 in0.0 mm 0.00 in0.0 mm
07:55 AM 27.0°F-2.8°C 25.3°F-3.7°C 93% Calm Calm -- 30.24 in1024.0 mb 0.00 in0.0 mm 0.00 in0.0 mm 0.00 in0.0 mm
08:00 AM 27.0°F-2.8°C 25.3°F-3.7°C 93% 0.4 mph W0.6 kmh W 1.2 mph1.9 kmh 30.27 in1025.1 mb 0.00 in0.0 mm 0.00 in0.0 mm 0.00 in0.0 mm
08:05 AM 26.9°F-2.8°C 25.1°F-3.8°C 93% 0.6 mph W1.0 kmh W 1.5 mph2.4 kmh 30.27 in1025.1 mb 0.00 in0.0 mm 0.00 in0.0 mm 0.00 in0.0 mm
08:10 AM 26.9°F-2.8°C 25.1°F-3.8°C 93% 0.2 mph WSW0.3 kmh WSW 1.5 mph2.4 kmh 30.27 in1025.1 mb 0.00 in0.0 mm 0.00 in0.0 mm 0.00 in0.0 mm
08:15 AM 26.9°F-2.8°C 25.1°F-3.8°C 93% 0.1 mph WSW0.2 kmh WSW 1.5 mph2.4 kmh 30.24 in1024.0 mb 0.00 in0.0 mm 0.00 in0.0 mm 0.00 in0.0 mm
08:20 AM 26.9°F-2.8°C 25.1°F-3.8°C 93% Calm Calm -- 30.24 in1024.0 mb 0.00 in0.0 mm 0.00 in0.0 mm 0.00 in0.0 mm
08:25 AM 26.9°F-2.8°C 25.1°F-3.8°C 93% 0.3 mph WSW0.5 kmh WSW 1.5 mph2.4 kmh 30.24 in1024.0 mb 0.00 in0.0 mm 0.00 in0.0 mm 0.00 in0.0 mm
08:30 AM 26.7°F-2.9°C 24.9°F-3.9°C 93% 0.2 mph WSW0.3 kmh WSW 1.5 mph2.4 kmh 30.24 in1024.0 mb 0.00 in0.0 mm 0.00 in0.0 mm 0.00 in0.0 mm
08:35 AM 26.7°F-2.9°C 24.9°F-3.9°C 93% Calm Calm -- 30.24 in1024.0 mb 0.00 in0.0 mm 0.00 in0.0 mm 0.00 in0.0 mm
08:40 AM 26.7°F-2.9°C 24.9°F-3.9°C 93% Calm Calm -- 30.24 in1024.0 mb 0.00 in0.0 mm 0.00 in0.0 mm 0.00 in0.0 mm
08:45 AM 26.7°F-2.9°C 24.9°F-3.9°C 93% 0.1 mph WSW0.2 kmh WSW 1.8 mph2.9 kmh 30.27 in1025.1 mb 0.00 in0.0 mm 0.00 in0.0 mm 0.00 in0.0 mm
08:50 AM 27.0°F-2.8°C 25.3°F-3.7°C 93% 0.1 mph WSW0.2 kmh WSW 1.8 mph2.9 kmh 30.27 in1025.1 mb 0.00 in0.0 mm 0.00 in0.0 mm 0.00 in0.0 mm
08:55 AM 27.2°F-2.7°C 25.5°F-3.6°C 93% Calm Calm -- 30.27 in1025.1 mb 0.00 in0.0 mm 0.00 in0.0 mm 0.00 in0.0 mm
09:00 AM 27.6°F-2.4°C 25.8°F-3.4°C 93% 0.1 mph WSW0.2 kmh WSW 2.1 mph3.4 kmh 30.24 in1024.0 mb 0.00 in0.0 mm 0.00 in0.0 mm 0.00 in0.0 mm
09:05 AM 28.0°F-2.2°C 26.2°F-3.2°C 93% 0.8 mph WSW1.3 kmh WSW 3.3 mph5.3 kmh 30.24 in1024.0 mb 0.00 in0.0 mm 0.00 in0.0 mm 0.00 in0.0 mm
09:10 AM 28.3°F-2.1°C 26.8°F-2.9°C 94% 0.6 mph WSW1.0 kmh WSW 3.3 mph5.3 kmh 30.24 in1024.0 mb 0.00 in0.0 mm 0.00 in0.0 mm 0.00 in0.0 mm
09:15 AM 28.5°F-1.9°C 27.0°F-2.8°C 94% Calm Calm -- 30.27 in1025.1 mb 0.00 in0.0 mm 0.00 in0.0 mm 0.00 in0.0 mm
09:20 AM 28.9°F-1.7°C 27.3°F-2.6°C 94% Calm Calm -- 30.27 in1025.1 mb 0.00 in0.0 mm 0.00 in0.0 mm 0.00 in0.0 mm
09:25 AM 28.9°F-1.7°C 27.3°F-2.6°C 94% Calm Calm -- 30.27 in1025.1 mb 0.00 in0.0 mm 0.00 in0.0 mm 0.00 in0.0 mm
09:30 AM 29.2°F-1.6°C 27.7°F-2.4°C 94% Calm Calm -- 30.27 in1025.1 mb 0.00 in0.0 mm 0.00 in0.0 mm 0.00 in0.0 mm
09:35 AM 29.4°F-1.4°C 27.9°F-2.3°C 94% Calm Calm -- 30.27 in1025.1 mb 0.00 in0.0 mm 0.00 in0.0 mm 0.00 in0.0 mm
09:40 AM 29.8°F-1.2°C 28.2°F-2.1°C 94% Calm Calm -- 30.27 in1025.1 mb 0.00 in0.0 mm 0.00 in0.0 mm 0.00 in0.0 mm
09:45 AM 29.9°F-1.2°C 28.4°F-2.0°C 94% Calm Calm -- 30.27 in1025.1 mb 0.00 in0.0 mm 0.00 in0.0 mm 0.00 in0.0 mm
09:50 AM 30.1°F-1.1°C 28.6°F-1.9°C 94% Calm Calm -- 30.27 in1025.1 mb 0.00 in0.0 mm 0.00 in0.0 mm 0.00 in0.0 mm
09:55 AM 30.3°F-0.9°C 28.8°F-1.8°C 94% Calm Calm -- 30.27 in1025.1 mb 0.00 in0.0 mm 0.00 in0.0 mm 0.00 in0.0 mm
10:00 AM 30.5°F-0.8°C 29.0°F-1.7°C 94% Calm Calm -- 30.27 in1025.1 mb 0.00 in0.0 mm 0.00 in0.0 mm 0.00 in0.0 mm
10:05 AM 30.6°F-0.8°C 29.1°F-1.6°C 94% Calm Calm -- 30.27 in1025.1 mb 0.00 in0.0 mm 0.00 in0.0 mm 0.00 in0.0 mm
10:10 AM 31.0°F-0.6°C 29.7°F-1.3°C 95% Calm Calm -- 30.27 in1025.1 mb 0.00 in0.0 mm 0.00 in0.0 mm 0.00 in0.0 mm
10:15 AM 31.4°F-0.3°C 30.1°F-1.1°C 95% Calm Calm -- 30.27 in1025.1 mb 0.00 in0.0 mm 0.00 in0.0 mm 0.00 in0.0 mm
10:20 AM 31.5°F-0.3°C 30.3°F-0.9°C 95% 0.1 mph E0.2 kmh E 1.5 mph2.4 kmh 30.27 in1025.1 mb 0.00 in0.0 mm 0.00 in0.0 mm 0.00 in0.0 mm
10:25 AM 31.7°F-0.2°C 30.5°F-0.8°C 95% 0.1 mph E0.2 kmh E 1.5 mph2.4 kmh 30.27 in1025.1 mb 0.00 in0.0 mm 0.00 in0.0 mm 0.00 in0.0 mm
10:30 AM 32.1°F0.1°C 30.8°F-0.7°C 95% 0.5 mph E0.8 kmh E 3.0 mph4.8 kmh 30.27 in1025.1 mb 0.00 in0.0 mm 0.00 in0.0 mm 0.00 in0.0 mm
10:35 AM 32.3°F0.2°C 31.0°F-0.6°C 95% 0.9 mph E1.4 kmh E 3.3 mph5.3 kmh 30.27 in1025.1 mb 0.00 in0.0 mm 0.00 in0.0 mm 0.00 in0.0 mm
10:40 AM 32.5°F0.3°C 31.2°F-0.4°C 95% 0.5 mph E0.8 kmh E 3.3 mph5.3 kmh 30.27 in1025.1 mb 0.00 in0.0 mm 0.00 in0.0 mm 0.00 in0.0 mm
10:45 AM 32.8°F0.4°C 31.5°F-0.3°C 95% Calm Calm -- 30.24 in1024.0 mb 0.00 in0.0 mm 0.00 in0.0 mm 0.00 in0.0 mm
10:50 AM 32.8°F0.4°C 31.5°F-0.3°C 95% 0.2 mph E0.3 kmh E 1.2 mph1.9 kmh 30.24 in1024.0 mb 0.00 in0.0 mm 0.00 in0.0 mm 0.00 in0.0 mm
10:55 AM 33.2°F0.7°C 31.9°F-0.1°C 95% 0.7 mph ENE1.1 kmh ENE 2.1 mph3.4 kmh 30.24 in1024.0 mb 0.00 in0.0 mm 0.00 in0.0 mm 0.00 in0.0 mm
11:00 AM 33.3°F0.7°C 32.1°F0.1°C 95% 0.5 mph ENE0.8 kmh ENE 2.1 mph3.4 kmh 30.24 in1024.0 mb 0.00 in0.0 mm 0.00 in0.0 mm 0.00 in0.0 mm
11:05 AM 33.5°F0.8°C 32.3°F0.2°C 95% 0.1 mph E0.2 kmh E 2.1 mph3.4 kmh 30.24 in1024.0 mb 0.00 in0.0 mm 0.00 in0.0 mm 0.00 in0.0 mm
11:10 AM 33.7°F0.9°C 32.4°F0.2°C 95% 1.4 mph ENE2.3 kmh ENE 3.3 mph5.3 kmh 30.24 in1024.0 mb 0.00 in0.0 mm 0.00 in0.0 mm 0.00 in0.0 mm
11:15 AM 33.9°F1.1°C 32.6°F0.3°C 95% 1.3 mph NE2.1 kmh NE 3.3 mph5.3 kmh 30.24 in1024.0 mb 0.00 in0.0 mm 0.00 in0.0 mm 0.00 in0.0 mm
11:20 AM 33.9°F1.1°C 32.6°F0.3°C 95% 0.2 mph NE0.3 kmh NE 2.7 mph4.3 kmh 30.24 in1024.0 mb 0.00 in0.0 mm 0.00 in0.0 mm 0.00 in0.0 mm
11:25 AM 33.9°F1.1°C 32.6°F0.3°C 95% Calm Calm -- 30.24 in1024.0 mb 0.00 in0.0 mm 0.00 in0.0 mm 0.00 in0.0 mm
11:30 AM 34.1°F1.2°C 32.8°F0.4°C 95% Calm Calm -- 30.24 in1024.0 mb 0.00 in0.0 mm 0.00 in0.0 mm 0.00 in0.0 mm
11:35 AM 34.3°F1.3°C 33.0°F0.6°C 95% Calm Calm -- 30.24 in1024.0 mb 0.00 in0.0 mm 0.00 in0.0 mm 0.00 in0.0 mm
11:40 AM 34.4°F1.3°C 33.1°F0.6°C 95% Calm Calm -- 30.24 in1024.0 mb 0.00 in0.0 mm 0.00 in0.0 mm 0.00 in0.0 mm
11:45 AM 34.6°F1.4°C 33.3°F0.7°C 95% Calm Calm -- 30.24 in1024.0 mb 0.00 in0.0 mm 0.00 in0.0 mm 0.00 in0.0 mm
11:50 AM 34.6°F1.4°C 33.3°F0.7°C 95% Calm Calm -- 30.24 in1024.0 mb 0.00 in0.0 mm 0.00 in0.0 mm 0.00 in0.0 mm
11:55 AM 35.0°F1.7°C 33.7°F0.9°C 95% 0.1 mph E0.2 kmh E 1.2 mph1.9 kmh 30.24 in1024.0 mb 0.00 in0.0 mm 0.00 in0.0 mm 0.00 in0.0 mm
12:00 PM 35.2°F1.8°C 33.9°F1.1°C 95% 0.6 mph E1.0 kmh E 2.7 mph4.3 kmh 30.24 in1024.0 mb 0.00 in0.0 mm 0.00 in0.0 mm 0.00 in0.0 mm
12:05 PM 35.3°F1.8°C 34.3°F1.3°C 96% 1.9 mph E3.1 kmh E 3.6 mph5.8 kmh 30.24 in1024.0 mb 0.00 in0.0 mm 0.00 in0.0 mm 0.00 in0.0 mm
12:10 PM 35.5°F1.9°C 34.5°F1.4°C 96% 2.4 mph E3.9 kmh E 3.6 mph5.8 kmh 30.24 in1024.0 mb 0.00 in0.0 mm 0.00 in0.0 mm 0.00 in0.0 mm
12:15 PM 35.9°F2.2°C 34.8°F1.6°C 96% 0.9 mph E1.4 kmh E 3.6 mph5.8 kmh 30.21 in1023.0 mb 0.00 in0.0 mm 0.00 in0.0 mm 0.00 in0.0 mm
12:20 PM 35.9°F2.2°C 34.8°F1.6°C 96% 0.8 mph E1.3 kmh E 3.3 mph5.3 kmh 30.21 in1023.0 mb 0.00 in0.0 mm 0.00 in0.0 mm 0.00 in0.0 mm
12:25 PM 36.4°F2.4°C 35.4°F1.9°C 96% 1.2 mph E1.9 kmh E 3.3 mph5.3 kmh 30.21 in1023.0 mb 0.00 in0.0 mm 0.00 in0.0 mm 0.00 in0.0 mm
12:30 PM 36.8°F2.7°C 35.7°F2.1°C 96% 0.7 mph ENE1.1 kmh ENE 3.3 mph5.3 kmh 30.21 in1023.0 mb 0.00 in0.0 mm 0.00 in0.0 mm 0.00 in0.0 mm
12:35 PM 37.1°F2.8°C 36.1°F2.3°C 96% 1.0 mph NE1.6 kmh NE 3.3 mph5.3 kmh 30.21 in1023.0 mb 0.00 in0.0 mm 0.00 in0.0 mm 0.00 in0.0 mm
12:40 PM 37.7°F3.2°C 36.6°F2.6°C 96% 1.2 mph ENE1.9 kmh ENE 3.9 mph6.3 kmh 30.21 in1023.0 mb 0.00 in0.0 mm 0.00 in0.0 mm 0.00 in0.0 mm
12:45 PM 38.0°F3.3°C 37.0°F2.8°C 96% 0.4 mph E0.6 kmh E 3.9 mph6.3 kmh 30.21 in1023.0 mb 0.00 in0.0 mm 0.00 in0.0 mm 0.00 in0.0 mm
12:50 PM 38.2°F3.4°C 37.2°F2.9°C 96% 0.2 mph E0.3 kmh E 1.5 mph2.4 kmh 30.21 in1023.0 mb 0.00 in0.0 mm 0.00 in0.0 mm 0.00 in0.0 mm
12:55 PM 38.6°F3.7°C 37.5°F3.1°C 96% Calm Calm -- 30.21 in1023.0 mb 0.00 in0.0 mm 0.00 in0.0 mm 0.00 in0.0 mm
01:00 PM 39.1°F3.9°C 38.1°F3.4°C 96% Calm Calm -- 30.21 in1023.0 mb 0.00 in0.0 mm 0.00 in0.0 mm 0.00 in0.0 mm
01:05 PM 39.5°F4.2°C 38.4°F3.6°C 96% Calm Calm -- 30.21 in1023.0 mb 0.00 in0.0 mm 0.00 in0.0 mm 0.00 in0.0 mm
01:10 PM 40.0°F4.4°C 39.0°F3.9°C 96% 0.4 mph NNE0.6 kmh NNE 1.8 mph2.9 kmh 30.21 in1023.0 mb 0.00 in0.0 mm 0.00 in0.0 mm 0.00 in0.0 mm
01:15 PM 40.7°F4.8°C 39.7°F4.3°C 96% 0.7 mph N1.1 kmh N 2.1 mph3.4 kmh 30.21 in1023.0 mb 0.00 in0.0 mm 0.00 in0.0 mm 0.00 in0.0 mm
01:20 PM 41.1°F5.1°C 40.0°F4.4°C 96% 0.8 mph NE1.3 kmh NE 2.7 mph4.3 kmh 30.21 in1023.0 mb 0.00 in0.0 mm 0.00 in0.0 mm 0.00 in0.0 mm
01:25 PM 41.3°F5.2°C 40.2°F4.6°C 96% 0.6 mph E1.0 kmh E 2.7 mph4.3 kmh 30.21 in1023.0 mb 0.00 in0.0 mm 0.00 in0.0 mm 0.00 in0.0 mm
01:30 PM 41.5°F5.3°C 40.4°F4.7°C 96% 0.2 mph NE0.3 kmh NE 1.2 mph1.9 kmh 30.18 in1022.0 mb 0.00 in0.0 mm 0.00 in0.0 mm 0.00 in0.0 mm
01:35 PM 41.6°F5.3°C 40.6°F4.8°C 96% 0.2 mph E0.3 kmh E 1.8 mph2.9 kmh 30.18 in1022.0 mb 0.00 in0.0 mm 0.00 in0.0 mm 0.00 in0.0 mm
01:40 PM 41.8°F5.4°C 40.8°F4.9°C 96% 0.3 mph ESE0.5 kmh ESE 1.8 mph2.9 kmh 30.18 in1022.0 mb 0.00 in0.0 mm 0.00 in0.0 mm 0.00 in0.0 mm
01:45 PM 41.8°F5.4°C 40.8°F4.9°C 96% 0.8 mph E1.3 kmh E 3.0 mph4.8 kmh 30.18 in1022.0 mb 0.00 in0.0 mm 0.00 in0.0 mm 0.00 in0.0 mm
01:50 PM 41.8°F5.4°C 40.8°F4.9°C 96% 1.3 mph E2.1 kmh E 3.0 mph4.8 kmh 30.18 in1022.0 mb 0.00 in0.0 mm 0.00 in0.0 mm 0.00 in0.0 mm
01:55 PM 42.0°F5.6°C 40.9°F4.9°C 96% 1.2 mph E1.9 kmh E 3.0 mph4.8 kmh 30.18 in1022.0 mb 0.00 in0.0 mm 0.00 in0.0 mm 0.00 in0.0 mm
02:00 PM 42.0°F5.6°C 40.9°F4.9°C 96% 2.4 mph E3.9 kmh E 4.8 mph7.7 kmh 30.18 in1022.0 mb 0.00 in0.0 mm 0.00 in0.0 mm 0.00 in0.0 mm
02:05 PM 42.0°F5.6°C 40.9°F4.9°C 96% 3.1 mph E5.0 kmh E 4.8 mph7.7 kmh 30.18 in1022.0 mb 0.00 in0.0 mm 0.00 in0.0 mm 0.00 in0.0 mm
02:10 PM 42.2°F5.7°C 41.1°F5.1°C 96% 3.2 mph E5.1 kmh E 4.5 mph7.2 kmh 30.18 in1022.0 mb 0.00 in0.0 mm 0.00 in0.0 mm 0.00 in0.0 mm
02:15 PM 42.2°F5.7°C 41.1°F5.1°C 96% 3.6 mph E5.8 kmh E 4.5 mph7.2 kmh 30.18 in1022.0 mb 0.00 in0.0 mm 0.00 in0.0 mm 0.00 in0.0 mm
02:20 PM 42.2°F5.7°C 41.1°F5.1°C 96% 3.5 mph E5.6 kmh E 4.5 mph7.2 kmh 30.18 in1022.0 mb 0.00 in0.0 mm 0.00 in0.0 mm 0.00 in0.0 mm
02:25 PM 42.3°F5.7°C 41.3°F5.2°C 96% 2.6 mph E4.2 kmh E 4.2 mph6.8 kmh 30.18 in1022.0 mb 0.00 in0.0 mm 0.00 in0.0 mm 0.00 in0.0 mm
02:30 PM 42.3°F5.7°C 41.3°F5.2°C 96% 2.1 mph E3.4 kmh E 4.8 mph7.7 kmh 30.18 in1022.0 mb 0.00 in0.0 mm 0.00 in0.0 mm 0.00 in0.0 mm
02:35 PM 42.3°F5.7°C 41.3°F5.2°C 96% 2.7 mph E4.3 kmh E 4.8 mph7.7 kmh 30.18 in1022.0 mb 0.00 in0.0 mm 0.00 in0.0 mm 0.00 in0.0 mm
02:40 PM 42.5°F5.8°C 41.5°F5.3°C 96% 2.0 mph E3.2 kmh E 3.6 mph5.8 kmh 30.18 in1022.0 mb 0.00 in0.0 mm 0.00 in0.0 mm 0.00 in0.0 mm
02:45 PM 42.5°F5.8°C 41.2°F5.1°C 95% 1.4 mph ENE2.3 kmh ENE 3.3 mph5.3 kmh 30.18 in1022.0 mb 0.00 in0.0 mm 0.00 in0.0 mm 0.00 in0.0 mm
02:50 PM 42.5°F5.8°C 41.2°F5.1°C 95% 2.2 mph E3.5 kmh E 4.2 mph6.8 kmh 30.18 in1022.0 mb 0.00 in0.0 mm 0.00 in0.0 mm 0.00 in0.0 mm
02:55 PM 42.5°F5.8°C 41.2°F5.1°C 95% 2.3 mph E3.7 kmh E 4.5 mph7.2 kmh 30.18 in1022.0 mb 0.00 in0.0 mm 0.00 in0.0 mm 0.00 in0.0 mm
03:00 PM 42.5°F5.8°C 41.2°F5.1°C 95% 2.9 mph E4.7 kmh E 4.5 mph7.2 kmh 30.18 in1022.0 mb 0.00 in0.0 mm 0.00 in0.0 mm 0.00 in0.0 mm
03:05 PM 42.5°F5.8°C 41.2°F5.1°C 95% 2.8 mph E4.5 kmh E 4.5 mph7.2 kmh 30.18 in1022.0 mb 0.00 in0.0 mm 0.00 in0.0 mm 0.00 in0.0 mm
03:10 PM 42.5°F5.8°C 41.2°F5.1°C 95% 1.0 mph E1.6 kmh E 4.2 mph6.8 kmh 30.18 in1022.0 mb 0.00 in0.0 mm 0.00 in0.0 mm 0.00 in0.0 mm
03:15 PM 42.5°F5.8°C 41.2°F5.1°C 95% 0.2 mph E0.3 kmh E 1.5 mph2.4 kmh 30.18 in1022.0 mb 0.00 in0.0 mm 0.00 in0.0 mm 0.00 in0.0 mm
03:20 PM 42.3°F5.7°C 41.0°F5.0°C 95% Calm Calm -- 30.18 in1022.0 mb 0.00 in0.0 mm 0.00 in0.0 mm 0.00 in0.0 mm
03:25 PM 42.3°F5.7°C 41.0°F5.0°C 95% 0.9 mph E1.4 kmh E 3.6 mph5.8 kmh 30.18 in1022.0 mb 0.00 in0.0 mm 0.00 in0.0 mm 0.00 in0.0 mm
03:30 PM 42.3°F5.7°C 41.0°F5.0°C 95% 1.4 mph E2.3 kmh E 3.6 mph5.8 kmh 30.18 in1022.0 mb 0.00 in0.0 mm 0.00 in0.0 mm 0.00 in0.0 mm
03:35 PM 42.3°F5.7°C 41.0°F5.0°C 95% 0.8 mph E1.3 kmh E 3.3 mph5.3 kmh 30.18 in1022.0 mb 0.00 in0.0 mm 0.00 in0.0 mm 0.00 in0.0 mm
03:40 PM 42.2°F5.7°C 40.8°F4.9°C 95% Calm Calm -- 30.18 in1022.0 mb 0.00 in0.0 mm 0.00 in0.0 mm 0.00 in0.0 mm
03:45 PM 42.2°F5.7°C 40.8°F4.9°C 95% 0.1 mph SE0.2 kmh SE 1.2 mph1.9 kmh 30.18 in1022.0 mb 0.00 in0.0 mm 0.00 in0.0 mm 0.00 in0.0 mm
03:50 PM 42.0°F5.6°C 40.7°F4.8°C 95% 2.7 mph S4.3 kmh S 7.4 mph11.9 kmh 30.18 in1022.0 mb 0.00 in0.0 mm 0.00 in0.0 mm 0.00 in0.0 mm
03:55 PM 42.0°F5.6°C 40.7°F4.8°C 95% 3.5 mph S5.6 kmh S 7.4 mph11.9 kmh 30.18 in1022.0 mb 0.00 in0.0 mm 0.00 in0.0 mm 0.00 in0.0 mm
04:00 PM 42.2°F5.7°C 40.8°F4.9°C 95% 2.3 mph S3.7 kmh S 4.8 mph7.7 kmh 30.15 in1021.0 mb 0.00 in0.0 mm 0.00 in0.0 mm 0.00 in0.0 mm
04:05 PM 42.2°F5.7°C 40.8°F4.9°C 95% 2.6 mph S4.2 kmh S 4.8 mph7.7 kmh 30.15 in1021.0 mb 0.00 in0.0 mm 0.00 in0.0 mm 0.00 in0.0 mm
04:10 PM 42.2°F5.7°C 40.6°F4.8°C 94% 3.1 mph SSE5.0 kmh SSE 4.8 mph7.7 kmh 30.15 in1021.0 mb 0.00 in0.0 mm 0.00 in0.0 mm 0.00 in0.0 mm
04:15 PM 42.2°F5.7°C 40.6°F4.8°C 94% 3.1 mph SE5.0 kmh SE 6.2 mph10.0 kmh 30.15 in1021.0 mb 0.00 in0.0 mm 0.00 in0.0 mm 0.00 in0.0 mm
04:20 PM 42.2°F5.7°C 40.6°F4.8°C 94% 3.9 mph SE6.3 kmh SE 8.0 mph12.9 kmh 30.15 in1021.0 mb 0.00 in0.0 mm 0.00 in0.0 mm 0.00 in0.0 mm
04:25 PM 42.2°F5.7°C 40.6°F4.8°C 94% 4.9 mph SE7.9 kmh SE 8.0 mph12.9 kmh 30.15 in1021.0 mb 0.00 in0.0 mm 0.00 in0.0 mm 0.00 in0.0 mm
04:30 PM 42.0°F5.6°C 40.4°F4.7°C 94% 4.1 mph SE6.6 kmh SE 6.5 mph10.5 kmh 30.15 in1021.0 mb 0.00 in0.0 mm 0.00 in0.0 mm 0.00 in0.0 mm
04:35 PM 41.8°F5.4°C 40.2°F4.6°C 94% 2.3 mph SE3.7 kmh SE 6.5 mph10.5 kmh 30.15 in1021.0 mb 0.00 in0.0 mm 0.00 in0.0 mm 0.00 in0.0 mm
04:40 PM 41.6°F5.3°C 40.0°F4.4°C 94% 1.8 mph E2.9 kmh E 3.6 mph5.8 kmh 30.15 in1021.0 mb 0.00 in0.0 mm 0.00 in0.0 mm 0.00 in0.0 mm
04:45 PM 41.3°F5.2°C 39.7°F4.3°C 94% 2.4 mph E3.9 kmh E 4.2 mph6.8 kmh 30.15 in1021.0 mb 0.00 in0.0 mm 0.00 in0.0 mm 0.00 in0.0 mm
04:50 PM 41.1°F5.1°C 39.5°F4.2°C 94% 2.4 mph E3.9 kmh E 4.2 mph6.8 kmh 30.15 in1021.0 mb 0.00 in0.0 mm 0.00 in0.0 mm 0.00 in0.0 mm
04:55 PM 40.9°F4.9°C 39.3°F4.1°C 94% 3.0 mph E4.8 kmh E 4.2 mph6.8 kmh 30.15 in1021.0 mb 0.00 in0.0 mm 0.00 in0.0 mm 0.00 in0.0 mm
05:00 PM 40.9°F4.9°C 39.3°F4.1°C 94% 3.6 mph E5.8 kmh E 4.2 mph6.8 kmh 30.15 in1021.0 mb 0.00 in0.0 mm 0.00 in0.0 mm 0.00 in0.0 mm
05:05 PM 40.9°F4.9°C 39.3°F4.1°C 94% 4.0 mph E6.4 kmh E 5.4 mph8.7 kmh 30.15 in1021.0 mb 0.00 in0.0 mm 0.00 in0.0 mm 0.00 in0.0 mm
05:10 PM 40.9°F4.9°C 39.3°F4.1°C 94% 4.6 mph E7.4 kmh E 7.4 mph11.9 kmh 30.15 in1021.0 mb 0.00 in0.0 mm 0.00 in0.0 mm 0.00 in0.0 mm
05:15 PM 40.9°F4.9°C 39.3°F4.1°C 94% 3.8 mph E6.1 kmh E 7.4 mph11.9 kmh 30.15 in1021.0 mb 0.00 in0.0 mm 0.00 in0.0 mm 0.00 in0.0 mm
05:20 PM 40.5°F4.7°C 39.0°F3.9°C 94% 3.3 mph E5.3 kmh E 4.2 mph6.8 kmh 30.15 in1021.0 mb 0.00 in0.0 mm 0.00 in0.0 mm 0.00 in0.0 mm
05:25 PM 40.4°F4.7°C 38.8°F3.8°C 94% 2.9 mph E4.7 kmh E 4.2 mph6.8 kmh 30.15 in1021.0 mb 0.00 in0.0 mm 0.00 in0.0 mm 0.00 in0.0 mm
05:30 PM 40.4°F4.7°C 38.8°F3.8°C 94% 2.4 mph E3.9 kmh E 4.2 mph6.8 kmh 30.15 in1021.0 mb 0.00 in0.0 mm 0.00 in0.0 mm 0.00 in0.0 mm
05:35 PM 40.2°F4.6°C 38.6°F3.7°C 94% 2.5 mph E4.0 kmh E 3.9 mph6.3 kmh 30.15 in1021.0 mb 0.00 in0.0 mm 0.00 in0.0 mm 0.00 in0.0 mm
05:40 PM 40.0°F4.4°C 38.4°F3.6°C 94% 2.7 mph E4.3 kmh E 5.1 mph8.2 kmh 30.15 in1021.0 mb 0.00 in0.0 mm 0.00 in0.0 mm 0.00 in0.0 mm
05:45 PM 40.0°F4.4°C 38.4°F3.6°C 94% 2.9 mph E4.7 kmh E 5.1 mph8.2 kmh 30.15 in1021.0 mb 0.00 in0.0 mm 0.00 in0.0 mm 0.00 in0.0 mm
05:50 PM 39.8°F4.3°C 38.2°F3.4°C 94% 3.3 mph ENE5.3 kmh ENE 4.5 mph7.2 kmh 30.15 in1021.0 mb 0.00 in0.0 mm 0.00 in0.0 mm 0.00 in0.0 mm
05:55 PM 39.8°F4.3°C 38.2°F3.4°C 94% 2.5 mph E4.0 kmh E 4.5 mph7.2 kmh 30.15 in1021.0 mb 0.00 in0.0 mm 0.00 in0.0 mm 0.00 in0.0 mm
06:00 PM 39.8°F4.3°C 38.2°F3.4°C 94% 1.7 mph SE2.7 kmh SE 4.5 mph7.2 kmh 30.15 in1021.0 mb 0.00 in0.0 mm 0.00 in0.0 mm 0.00 in0.0 mm
06:05 PM 40.2°F4.6°C 38.9°F3.8°C 95% 1.9 mph SE3.1 kmh SE 5.1 mph8.2 kmh 30.15 in1021.0 mb 0.00 in0.0 mm 0.00 in0.0 mm 0.00 in0.0 mm
06:10 PM 40.5°F4.7°C 39.2°F4.0°C 95% 3.3 mph S5.3 kmh S 9.2 mph14.8 kmh 30.15 in1021.0 mb 0.00 in0.0 mm 0.00 in0.0 mm 0.00 in0.0 mm
06:15 PM 41.1°F5.1°C 39.8°F4.3°C 95% 4.7 mph S7.6 kmh S 9.2 mph14.8 kmh 30.15 in1021.0 mb 0.00 in0.0 mm 0.00 in0.0 mm 0.00 in0.0 mm
06:20 PM 41.5°F5.3°C 40.1°F4.5°C 95% 5.8 mph SSE9.3 kmh SSE 11.9 mph19.2 kmh 30.15 in1021.0 mb 0.00 in0.0 mm 0.00 in0.0 mm 0.00 in0.0 mm
06:25 PM 41.6°F5.3°C 40.3°F4.6°C 95% 6.3 mph S10.1 kmh S 11.9 mph19.2 kmh 30.15 in1021.0 mb 0.00 in0.0 mm 0.00 in0.0 mm 0.00 in0.0 mm
06:30 PM 41.8°F5.4°C 40.5°F4.7°C 95% 5.7 mph S9.2 kmh S 8.0 mph12.9 kmh 30.15 in1021.0 mb 0.00 in0.0 mm 0.00 in0.0 mm 0.00 in0.0 mm
06:35 PM 41.8°F5.4°C 40.5°F4.7°C 95% 5.5 mph S8.9 kmh S 8.3 mph13.4 kmh 30.15 in1021.0 mb 0.00 in0.0 mm 0.00 in0.0 mm 0.00 in0.0 mm
06:40 PM 41.8°F5.4°C 40.5°F4.7°C 95% 4.6 mph SSE7.4 kmh SSE 8.3 mph13.4 kmh 30.15 in1021.0 mb 0.00 in0.0 mm 0.00 in0.0 mm 0.00 in0.0 mm
06:45 PM 41.6°F5.3°C 40.3°F4.6°C 95% 3.0 mph SE4.8 kmh SE 6.5 mph10.5 kmh 30.15 in1021.0 mb 0.00 in0.0 mm 0.00 in0.0 mm 0.00 in0.0 mm
06:50 PM 41.6°F5.3°C 40.3°F4.6°C 95% 3.0 mph SE4.8 kmh SE 4.8 mph7.7 kmh 30.15 in1021.0 mb 0.00 in0.0 mm 0.00 in0.0 mm 0.00 in0.0 mm
06:55 PM 41.6°F5.3°C 40.3°F4.6°C 95% 3.5 mph SE5.6 kmh SE 8.0 mph12.9 kmh 30.15 in1021.0 mb 0.00 in0.0 mm 0.00 in0.0 mm 0.00 in0.0 mm
07:00 PM 41.6°F5.3°C 40.3°F4.6°C 95% 3.5 mph SE5.6 kmh SE 8.0 mph12.9 kmh 30.12 in1020.0 mb 0.00 in0.0 mm 0.00 in0.0 mm 0.00 in0.0 mm
07:05 PM 41.6°F5.3°C 40.3°F4.6°C 95% 2.7 mph SSE4.3 kmh SSE 4.5 mph7.2 kmh 30.12 in1020.0 mb 0.00 in0.0 mm 0.00 in0.0 mm 0.00 in0.0 mm
07:10 PM 41.6°F5.3°C 40.3°F4.6°C 95% 2.8 mph S4.5 kmh S 5.1 mph8.2 kmh 30.12 in1020.0 mb 0.00 in0.0 mm 0.00 in0.0 mm 0.00 in0.0 mm
07:15 PM 41.5°F5.3°C 40.1°F4.5°C 95% 3.4 mph S5.5 kmh S 6.2 mph10.0 kmh 30.15 in1021.0 mb 0.00 in0.0 mm 0.00 in0.0 mm 0.00 in0.0 mm
07:20 PM 41.6°F5.3°C 40.3°F4.6°C 95% 3.8 mph SE6.1 kmh SE 6.2 mph10.0 kmh 30.15 in1021.0 mb 0.00 in0.0 mm 0.00 in0.0 mm 0.00 in0.0 mm
07:25 PM 41.6°F5.3°C 40.3°F4.6°C 95% 4.0 mph ESE6.4 kmh ESE 7.1 mph11.4 kmh 30.15 in1021.0 mb 0.00 in0.0 mm 0.00 in0.0 mm 0.00 in0.0 mm
07:30 PM 41.8°F5.4°C 40.5°F4.7°C 95% 5.2 mph ESE8.4 kmh ESE 9.8 mph15.8 kmh 30.12 in1020.0 mb 0.00 in0.0 mm 0.00 in0.0 mm 0.00 in0.0 mm
07:35 PM 42.0°F5.6°C 40.7°F4.8°C 95% 6.0 mph E9.7 kmh E 9.8 mph15.8 kmh 30.12 in1020.0 mb 0.00 in0.0 mm 0.00 in0.0 mm 0.00 in0.0 mm
07:40 PM 42.2°F5.7°C 40.8°F4.9°C 95% 6.1 mph E9.8 kmh E 9.8 mph15.8 kmh 30.12 in1020.0 mb 0.00 in0.0 mm 0.00 in0.0 mm 0.00 in0.0 mm
07:45 PM 42.2°F5.7°C 40.8°F4.9°C 95% 6.7 mph SE10.8 kmh SE 14.0 mph22.5 kmh 30.12 in1020.0 mb 0.00 in0.0 mm 0.00 in0.0 mm 0.00 in0.0 mm
07:50 PM 42.3°F5.7°C 41.0°F5.0°C 95% 6.8 mph SE10.9 kmh SE 14.0 mph22.5 kmh 30.12 in1020.0 mb 0.00 in0.0 mm 0.00 in0.0 mm 0.00 in0.0 mm
07:55 PM 42.3°F5.7°C 41.0°F5.0°C 95% 6.8 mph ENE10.9 kmh ENE 11.3 mph18.2 kmh 30.12 in1020.0 mb 0.00 in0.0 mm 0.00 in0.0 mm 0.00 in0.0 mm
08:00 PM 42.5°F5.8°C 41.2°F5.1°C 95% 7.0 mph ENE11.3 kmh ENE 11.3 mph18.2 kmh 30.12 in1020.0 mb 0.00 in0.0 mm 0.00 in0.0 mm 0.00 in0.0 mm
08:05 PM 42.7°F5.9°C 41.4°F5.2°C 95% 7.8 mph SE12.6 kmh SE 10.1 mph16.3 kmh 30.12 in1020.0 mb 0.00 in0.0 mm 0.00 in0.0 mm 0.00 in0.0 mm
08:10 PM 42.7°F5.9°C 41.4°F5.2°C 95% 7.6 mph SE12.2 kmh SE 10.1 mph16.3 kmh 30.12 in1020.0 mb 0.00 in0.0 mm 0.00 in0.0 mm 0.00 in0.0 mm
08:15 PM 42.9°F6.1°C 41.6°F5.3°C 95% 5.2 mph SE8.4 kmh SE 8.9 mph14.3 kmh 30.12 in1020.0 mb 0.00 in0.0 mm 0.00 in0.0 mm 0.00 in0.0 mm
08:20 PM 42.9°F6.1°C 41.6°F5.3°C 95% 4.7 mph SSE7.6 kmh SSE 7.7 mph12.4 kmh 30.12 in1020.0 mb 0.00 in0.0 mm 0.00 in0.0 mm 0.00 in0.0 mm
08:25 PM 43.1°F6.2°C 41.7°F5.4°C 95% 5.9 mph SSE9.5 kmh SSE 11.6 mph18.7 kmh 30.12 in1020.0 mb 0.00 in0.0 mm 0.00 in0.0 mm 0.00 in0.0 mm
08:30 PM 43.1°F6.2°C 41.7°F5.4°C 95% 7.3 mph SSE11.7 kmh SSE 14.0 mph22.5 kmh 30.12 in1020.0 mb 0.00 in0.0 mm 0.00 in0.0 mm 0.00 in0.0 mm
08:35 PM 43.1°F6.2°C 41.7°F5.4°C 95% 7.7 mph S12.4 kmh S 14.0 mph22.5 kmh 30.12 in1020.0 mb 0.00 in0.0 mm 0.00 in0.0 mm 0.00 in0.0 mm
08:40 PM 43.1°F6.2°C 41.7°F5.4°C 95% 7.0 mph SSW11.3 kmh SSW 13.4 mph21.6 kmh 30.12 in1020.0 mb 0.00 in0.0 mm 0.00 in0.0 mm 0.00 in0.0 mm
08:45 PM 43.1°F6.2°C 41.7°F5.4°C 95% 6.6 mph S10.6 kmh S 9.8 mph15.8 kmh 30.12 in1020.0 mb 0.00 in0.0 mm 0.00 in0.0 mm 0.00 in0.0 mm
08:50 PM 43.1°F6.2°C 41.7°F5.4°C 95% 7.2 mph S11.6 kmh S 10.4 mph16.7 kmh 30.12 in1020.0 mb 0.00 in0.0 mm 0.00 in0.0 mm 0.00 in0.0 mm
08:55 PM 43.1°F6.2°C 41.5°F5.3°C 94% 8.6 mph SSE13.8 kmh SSE 13.1 mph21.1 kmh 30.12 in1020.0 mb 0.00 in0.0 mm 0.00 in0.0 mm 0.00 in0.0 mm
09:00 PM 43.1°F6.2°C 41.5°F5.3°C 94% 8.1 mph S13.0 kmh S 14.0 mph22.5 kmh 30.12 in1020.0 mb 0.00 in0.0 mm 0.00 in0.0 mm 0.00 in0.0 mm
09:05 PM 42.9°F6.1°C 41.3°F5.2°C 94% 8.5 mph S13.7 kmh S 14.0 mph22.5 kmh 30.12 in1020.0 mb 0.00 in0.0 mm 0.00 in0.0 mm 0.00 in0.0 mm
09:10 PM 42.9°F6.1°C 41.3°F5.2°C 94% 8.1 mph S13.0 kmh S 13.1 mph21.1 kmh 30.12 in1020.0 mb 0.00 in0.0 mm 0.00 in0.0 mm 0.00 in0.0 mm
09:15 PM 42.9°F6.1°C 41.3°F5.2°C 94% 6.3 mph S10.1 kmh S 8.6 mph13.8 kmh 30.12 in1020.0 mb 0.00 in0.0 mm 0.00 in0.0 mm 0.00 in0.0 mm
09:20 PM 42.9°F6.1°C 41.3°F5.2°C 94% 7.3 mph S11.7 kmh S 14.0 mph22.5 kmh 30.12 in1020.0 mb 0.00 in0.0 mm 0.00 in0.0 mm 0.00 in0.0 mm
09:25 PM 42.9°F6.1°C 41.3°F5.2°C 94% 7.3 mph SSW11.7 kmh SSW 14.0 mph22.5 kmh 30.12 in1020.0 mb 0.00 in0.0 mm 0.00 in0.0 mm 0.00 in0.0 mm
09:30 PM 42.9°F6.1°C 41.3°F5.2°C 94% 7.9 mph S12.7 kmh S 14.3 mph23.0 kmh 30.12 in1020.0 mb 0.00 in0.0 mm 0.00 in0.0 mm 0.00 in0.0 mm
09:35 PM 42.9°F6.1°C 41.3°F5.2°C 94% 7.2 mph S11.6 kmh S 14.3 mph23.0 kmh 30.12 in1020.0 mb 0.00 in0.0 mm 0.00 in0.0 mm 0.00 in0.0 mm
09:40 PM 42.7°F5.9°C 41.1°F5.1°C 94% 5.9 mph SSE9.5 kmh SSE 9.5 mph15.3 kmh 30.12 in1020.0 mb 0.00 in0.0 mm 0.00 in0.0 mm 0.00 in0.0 mm
09:45 PM 42.7°F5.9°C 41.1°F5.1°C 94% 6.8 mph SE10.9 kmh SE 9.5 mph15.3 kmh 30.09 in1019.0 mb 0.00 in0.0 mm 0.00 in0.0 mm 0.00 in0.0 mm
09:50 PM 42.5°F5.8°C 40.9°F4.9°C 94% 7.6 mph SSE12.2 kmh SSE 10.1 mph16.3 kmh 30.09 in1019.0 mb 0.00 in0.0 mm 0.00 in0.0 mm 0.00 in0.0 mm
09:55 PM 42.5°F5.8°C 40.9°F4.9°C 94% 7.7 mph S12.4 kmh S 17.3 mph27.8 kmh 30.09 in1019.0 mb 0.00 in0.0 mm 0.00 in0.0 mm 0.00 in0.0 mm
10:00 PM 42.3°F5.7°C 40.7°F4.8°C 94% 6.5 mph SSE10.5 kmh SSE 17.3 mph27.8 kmh 30.09 in1019.0 mb 0.00 in0.0 mm 0.00 in0.0 mm 0.00 in0.0 mm
10:05 PM 42.2°F5.7°C 40.6°F4.8°C 94% 5.8 mph S9.3 kmh S 11.9 mph19.2 kmh 30.09 in1019.0 mb 0.00 in0.0 mm 0.00 in0.0 mm 0.00 in0.0 mm
10:10 PM 42.2°F5.7°C 40.6°F4.8°C 94% 6.2 mph S10.0 kmh S 10.4 mph16.7 kmh 30.09 in1019.0 mb 0.00 in0.0 mm 0.00 in0.0 mm 0.00 in0.0 mm
10:15 PM 42.0°F5.6°C 40.4°F4.7°C 94% 6.3 mph SE10.1 kmh SE 10.4 mph16.7 kmh 30.09 in1019.0 mb 0.00 in0.0 mm 0.00 in0.0 mm 0.00 in0.0 mm
10:20 PM 41.8°F5.4°C 40.2°F4.6°C 94% 6.2 mph SE10.0 kmh SE 10.4 mph16.7 kmh 30.09 in1019.0 mb 0.00 in0.0 mm 0.00 in0.0 mm 0.00 in0.0 mm
10:25 PM 41.8°F5.4°C 39.9°F4.4°C 93% 4.5 mph S7.2 kmh S 7.4 mph11.9 kmh 30.09 in1019.0 mb 0.00 in0.0 mm 0.00 in0.0 mm 0.00 in0.0 mm
10:30 PM 41.6°F5.3°C 39.8°F4.3°C 93% 4.1 mph SSE6.6 kmh SSE 7.4 mph11.9 kmh 30.09 in1019.0 mb 0.00 in0.0 mm 0.00 in0.0 mm 0.00 in0.0 mm
10:35 PM 41.6°F5.3°C 39.8°F4.3°C 93% 5.0 mph SE8.0 kmh SE 8.3 mph13.4 kmh 30.09 in1019.0 mb 0.00 in0.0 mm 0.00 in0.0 mm 0.00 in0.0 mm
10:40 PM 41.5°F5.3°C 39.9°F4.4°C 94% 5.9 mph SE9.5 kmh SE 8.3 mph13.4 kmh 30.09 in1019.0 mb 0.00 in0.0 mm 0.00 in0.0 mm 0.00 in0.0 mm
10:45 PM 41.3°F5.2°C 39.7°F4.3°C 94% 5.4 mph ESE8.7 kmh ESE 7.4 mph11.9 kmh 30.09 in1019.0 mb 0.00 in0.0 mm 0.00 in0.0 mm 0.00 in0.0 mm
10:50 PM 41.3°F5.2°C 39.7°F4.3°C 94% 4.3 mph E6.9 kmh E 7.4 mph11.9 kmh 30.09 in1019.0 mb 0.00 in0.0 mm 0.00 in0.0 mm 0.00 in0.0 mm
10:55 PM 41.3°F5.2°C 39.7°F4.3°C 94% 3.8 mph E6.1 kmh E 5.1 mph8.2 kmh 30.09 in1019.0 mb 0.00 in0.0 mm 0.00 in0.0 mm 0.00 in0.0 mm
11:00 PM 41.3°F5.2°C 39.7°F4.3°C 94% 3.9 mph ESE6.3 kmh ESE 5.1 mph8.2 kmh 30.09 in1019.0 mb 0.00 in0.0 mm 0.00 in0.0 mm 0.00 in0.0 mm
11:05 PM 41.3°F5.2°C 39.7°F4.3°C 94% 4.1 mph SE6.6 kmh SE 7.7 mph12.4 kmh 30.09 in1019.0 mb 0.00 in0.0 mm 0.00 in0.0 mm 0.00 in0.0 mm
11:10 PM 41.3°F5.2°C 39.7°F4.3°C 94% 6.5 mph SE10.5 kmh SE 11.3 mph18.2 kmh 30.09 in1019.0 mb 0.00 in0.0 mm 0.00 in0.0 mm 0.00 in0.0 mm
11:15 PM 41.1°F5.1°C 39.5°F4.2°C 94% 6.6 mph SE10.6 kmh SE 11.3 mph18.2 kmh 30.09 in1019.0 mb 0.00 in0.0 mm 0.00 in0.0 mm 0.00 in0.0 mm
11:20 PM 41.1°F5.1°C 39.5°F4.2°C 94% 5.1 mph SE8.2 kmh SE 8.9 mph14.3 kmh 30.09 in1019.0 mb 0.00 in0.0 mm 0.00 in0.0 mm 0.00 in0.0 mm
11:25 PM 41.1°F5.1°C 39.5°F4.2°C 94% 5.1 mph SE8.2 kmh SE 9.5 mph15.3 kmh 30.09 in1019.0 mb 0.00 in0.0 mm 0.00 in0.0 mm 0.00 in0.0 mm
11:30 PM 41.1°F5.1°C 39.2°F4.0°C 93% 5.3 mph SE8.5 kmh SE 9.5 mph15.3 kmh 30.09 in1019.0 mb 0.00 in0.0 mm 0.00 in0.0 mm 0.00 in0.0 mm
11:35 PM 41.1°F5.1°C 39.2°F4.0°C 93% 5.4 mph SE8.7 kmh SE 8.0 mph12.9 kmh 30.09 in1019.0 mb 0.00 in0.0 mm 0.00 in0.0 mm 0.00 in0.0 mm
11:40 PM 41.1°F5.1°C 39.2°F4.0°C 93% 4.5 mph SE7.2 kmh SE 5.7 mph9.2 kmh 30.09 in1019.0 mb 0.00 in0.0 mm 0.00 in0.0 mm 0.00 in0.0 mm
11:45 PM 41.1°F5.1°C 39.2°F4.0°C 93% 3.7 mph SE6.0 kmh SE 6.0 mph9.7 kmh 30.07 in1018.3 mb 0.00 in0.0 mm 0.00 in0.0 mm 0.00 in0.0 mm
11:50 PM 41.1°F5.1°C 39.2°F4.0°C 93% 3.9 mph SSE6.3 kmh SSE 7.4 mph11.9 kmh 30.07 in1018.3 mb 0.00 in0.0 mm 0.00 in0.0 mm 0.00 in0.0 mm
11:55 PM 41.1°F5.1°C 39.2°F4.0°C 93% 5.3 mph S8.5 kmh S 9.8 mph15.8 kmh 30.07 in1018.3 mb 0.00 in0.0 mm 0.00 in0.0 mm 0.00 in0.0 mm